Time;durP1;ratioP1;P1;durP2;ratioP2;P2;SDS_P1;SDS_P2;PMS_P1;PMS_P2;Temp;Humidity;BMP_temperature;BMP_pressure;BME280_temperature;BME280_humidity;BME280_pressure;Samples;Min_cycle;Max_cycle;Signal;HPM_P1;HPM_P2
2023/09/17 00:03:17;;;;;;;4.05;2.40;;;28.00;62.00;;;;;;10493258;28;20139;-37
2023/09/17 00:08:19;;;;;;;6.95;2.42;;;28.00;62.10;;;;;;10487722;28;20568;-34
2023/09/17 00:13:23;;;;;;;3.33;2.78;;;27.90;62.10;;;;;;10490947;28;20517;-35
2023/09/17 00:18:25;;;;;;;3.80;2.63;;;27.90;62.10;;;;;;10487281;28;20060;-34
2023/09/17 00:23:27;;;;;;;2.55;2.03;;;27.90;62.10;;;;;;10495141;28;20049;-35
2023/09/17 00:28:30;;;;;;;2.97;2.00;;;27.90;62.10;;;;;;10497546;28;20098;-32
2023/09/17 00:33:32;;;;;;;3.40;2.22;;;27.90;62.00;;;;;;10493607;28;20072;-37
2023/09/17 00:38:35;;;;;;;3.33;2.05;;;27.80;62.00;;;;;;10494385;28;20052;-33
2023/09/17 00:43:39;;;;;;;4.60;2.28;;;27.80;62.00;;;;;;10494829;28;20044;-31
2023/09/17 00:48:41;;;;;;;4.40;2.35;;;27.80;62.00;;;;;;10488049;28;20486;-36
2023/09/17 00:53:43;;;;;;;5.15;2.45;;;27.80;61.90;;;;;;10492396;28;20122;-32
2023/09/17 00:58:46;;;;;;;4.45;2.42;;;27.80;61.80;;;;;;10495166;28;20064;-33
2023/09/17 01:03:48;;;;;;;5.68;2.17;;;27.70;61.70;;;;;;10495249;28;20044;-35
2023/09/17 01:08:50;;;;;;;3.60;2.13;;;27.70;61.60;;;;;;10492188;28;20072;-32
2023/09/17 01:14:08;;;;;;;10.77;2.22;;;27.70;61.50;;;;;;10477577;28;20098;-33
2023/09/17 01:19:15;;;;;;;3.05;2.28;;;27.60;61.40;;;;;;10489454;28;20408;-36
2023/09/17 01:24:28;;;;;;;2.05;1.80;;;27.60;61.30;;;;;;10482530;28;20132;-33
2023/09/17 01:29:35;;;;;;;3.30;2.13;;;27.60;61.20;;;;;;10481471;28;20725;-39
2023/09/17 01:34:40;;;;;;;2.67;1.75;;;27.60;61.10;;;;;;10488916;28;20144;-33
2023/09/17 01:39:48;;;;;;;3.33;2.03;;;27.60;61.00;;;;;;10487923;28;20040;-31
2023/09/17 01:44:56;;;;;;;2.47;1.80;;;27.60;61.00;;;;;;10491300;28;20139;-31
2023/09/17 01:49:59;;;;;;;3.03;1.70;;;27.50;60.80;;;;;;10484027;28;20508;-31
2023/09/17 01:55:03;;;;;;;2.75;1.98;;;27.50;60.90;;;;;;10491300;28;20076;-36
2023/09/17 02:00:14;;;;;;;3.30;2.03;;;27.50;60.80;;;;;;10496626;28;20147;-38
2023/09/17 02:05:16;;;;;;;;;;;27.50;60.70;;;;;;10489116;28;20076;-35
2023/09/17 02:10:19;;;;;;;2.95;2.00;;;27.50;60.60;;;;;;10488845;28;19935;-33
2023/09/17 02:15:22;;;;;;;2.50;2.08;;;27.50;60.50;;;;;;10488940;28;20064;-35
2023/09/17 02:20:24;;;;;;;4.95;2.60;;;27.40;60.40;;;;;;10492646;28;20161;-30
2023/09/17 02:25:26;;;;;;;4.50;2.83;;;27.40;60.60;;;;;;10478548;28;20537;-35
2023/09/17 02:30:29;;;;;;;4.30;2.03;;;27.40;60.60;;;;;;10490947;28;20489;-41
2023/09/17 02:35:31;;;;;;;2.35;1.60;;;27.40;60.40;;;;;;10491049;28;20051;-29
2023/09/17 02:40:33;;;;;;;3.28;1.73;;;27.40;60.30;;;;;;10492495;28;20052;-34
2023/09/17 02:45:36;;;;;;;3.30;1.90;;;27.40;60.20;;;;;;10483789;28;20052;-36
2023/09/17 02:50:39;;;;;;;2.88;1.80;;;27.40;60.10;;;;;;10478766;28;20053;-33
2023/09/17 02:55:41;;;;;;;2.75;2.22;;;27.30;60.00;;;;;;10481041;28;20113;-37
2023/09/17 03:15:31;;;;;;;2.47;1.75;;;27.10;59.50;;;;;;10479558;28;20710;-35
2023/09/17 03:20:33;;;;;;;3.95;2.13;;;27.10;60.00;;;;;;10451164;28;20049;-33
2023/09/17 03:25:36;;;;;;;2.78;1.98;;;27.20;59.70;;;;;;10443053;28;20071;-36
2023/09/17 03:30:39;;;;;;;3.55;1.90;;;27.10;59.60;;;;;;10444484;28;20084;-32
2023/09/17 03:35:41;;;;;;;3.45;1.75;;;27.20;59.50;;;;;;10445200;28;20213;-32
2023/09/17 03:40:42;;;;;;;5.47;1.95;;;27.10;59.40;;;;;;10441822;28;20084;-31
2023/09/17 03:45:46;;;;;;;2.45;1.75;;;27.10;59.30;;;;;;10443042;28;20124;-38
2023/09/17 03:50:48;;;;;;;1.95;1.50;;;27.10;59.30;;;;;;10441316;28;20053;-32
2023/09/17 03:55:50;;;;;;;2.83;2.03;;;27.10;59.20;;;;;;10443725;28;20076;-32
2023/09/17 04:00:53;;;;;;;3.53;1.95;;;27.10;59.10;;;;;;10452000;28;20059;-34
2023/09/17 04:05:55;;;;;;;5.32;1.90;;;27.00;59.00;;;;;;10450432;28;20049;-31
2023/09/17 04:10:57;;;;;;;2.33;2.00;;;27.10;59.00;;;;;;10445381;28;20486;-32
2023/09/17 04:16:00;;;;;;;4.22;1.67;;;27.00;58.90;;;;;;10436742;28;20053;-36
2023/09/17 04:21:02;;;;;;;2.80;2.03;;;27.00;58.90;;;;;;10441988;28;20049;-32
2023/09/17 04:26:04;;;;;;;2.08;1.80;;;27.00;58.80;;;;;;10426517;28;20140;-33
2023/09/17 04:31:08;;;;;;;1.70;1.60;;;27.00;58.80;;;;;;10404774;28;20085;-37
2023/09/17 04:36:10;;;;;;;2.28;2.08;;;27.00;58.70;;;;;;10411429;28;20072;-31
2023/09/17 04:41:12;;;;;;;2.20;2.00;;;26.90;58.70;;;;;;10413361;28;20103;-37
2023/09/17 04:46:15;;;;;;;2.80;1.90;;;26.90;58.70;;;;;;10402814;28;20049;-36
2023/09/17 04:51:17;;;;;;;4.93;2.00;;;26.90;58.80;;;;;;10413465;28;20041;-32
2023/09/17 04:56:18;;;;;;;2.58;1.70;;;26.90;58.80;;;;;;10414284;28;20475;-31
2023/09/17 05:01:22;;;;;;;3.45;2.30;;;26.90;58.70;;;;;;10413802;28;20071;-30
2023/09/17 05:06:23;;;;;;;3.90;1.88;;;26.90;58.70;;;;;;10412727;28;20084;-36
2023/09/17 05:11:25;;;;;;;3.95;2.08;;;26.90;58.70;;;;;;10407768;28;20092;-32
2023/09/17 05:16:28;;;;;;;2.50;1.73;;;26.90;58.60;;;;;;10412888;28;20124;-32
2023/09/17 05:21:30;;;;;;;2.22;1.70;;;26.90;58.60;;;;;;10399195;28;20554;-33
2023/09/17 05:26:32;;;;;;;4.57;1.77;;;26.80;58.60;;;;;;10414201;28;20069;-32
2023/09/17 05:31:35;;;;;;;3.90;2.00;;;26.80;58.50;;;;;;10411254;28;20671;-31
2023/09/17 05:36:37;;;;;;;2.17;1.75;;;26.80;58.50;;;;;;10414373;28;20092;-34
2023/09/17 05:41:39;;;;;;;2.50;1.85;;;26.80;58.50;;;;;;10409792;28;20046;-36
2023/09/17 05:46:42;;;;;;;3.28;1.75;;;26.80;58.50;;;;;;10409789;28;20038;-27
2023/09/17 05:51:44;;;;;;;3.47;2.10;;;26.80;58.70;;;;;;10406520;28;20084;-30
2023/09/17 05:56:46;;;;;;;2.00;1.80;;;26.80;58.70;;;;;;10411067;28;20057;-33
2023/09/17 06:01:52;;;;;;;3.15;1.98;;;26.80;58.70;;;;;;10406747;28;20072;-31
2023/09/17 06:06:53;;;;;;;2.30;1.75;;;26.80;58.60;;;;;;10415919;28;20073;-34
2023/09/17 06:11:56;;;;;;;2.10;1.90;;;26.70;58.50;;;;;;10411138;28;20229;-38
2023/09/17 06:17:01;;;;;;;3.88;1.80;;;26.70;58.50;;;;;;10404784;28;20133;-32
2023/09/17 06:22:03;;;;;;;1.73;1.60;;;26.70;58.40;;;;;;10405784;28;20049;-34
2023/09/17 06:27:05;;;;;;;3.60;2.00;;;26.70;58.30;;;;;;10407131;28;20045;-32
2023/09/17 06:32:09;;;;;;;3.70;2.00;;;26.70;58.30;;;;;;10404599;28;20084;-35
2023/09/17 06:37:11;;;;;;;3.47;1.83;;;26.70;58.20;;;;;;10417115;28;20050;-32
2023/09/17 06:42:13;;;;;;;2.22;1.33;;;26.70;58.20;;;;;;10399749;28;20495;-33
2023/09/17 06:47:16;;;;;;;5.40;2.60;;;26.70;58.30;;;;;;10408730;28;20095;-35
2023/09/17 06:52:18;;;;;;;2.92;1.90;;;26.70;58.30;;;;;;10393721;28;20053;-34
2023/09/17 06:57:20;;;;;;;4.28;1.67;;;26.70;58.40;;;;;;10400095;28;20199;-35
2023/09/17 07:02:24;;;;;;;6.13;1.98;;;26.70;58.50;;;;;;10401247;28;20128;-39
2023/09/17 07:07:26;;;;;;;6.57;2.05;;;26.70;59.20;;;;;;10404632;28;20056;-36
2023/09/17 07:12:29;;;;;;;5.55;1.80;;;26.70;58.70;;;;;;10400383;28;20132;-35
2023/09/17 07:17:33;;;;;;;4.20;2.20;;;26.70;58.70;;;;;;10399872;28;20038;-31
2023/09/17 07:22:35;;;;;;;5.57;2.25;;;26.70;58.70;;;;;;10394912;28;20491;-37
2023/09/17 07:27:37;;;;;;;4.88;1.88;;;26.70;58.70;;;;;;10396302;28;20049;-35
2023/09/17 07:32:41;;;;;;;8.02;2.08;;;26.70;58.70;;;;;;10388346;28;20530;-35
2023/09/17 07:37:43;;;;;;;2.60;1.67;;;26.70;58.70;;;;;;10393116;28;20135;-36
2023/09/17 07:42:45;;;;;;;3.03;1.98;;;26.60;58.80;;;;;;10400093;28;20088;-39
2023/09/17 07:47:48;;;;;;;4.82;1.77;;;26.50;59.20;;;;;;10394646;28;20053;-36
2023/09/17 07:52:53;;;;;;;3.75;1.80;;;26.60;59.00;;;;;;10404574;28;20069;-39
2023/09/17 07:57:55;;;;;;;5.28;1.90;;;26.60;59.10;;;;;;10419024;28;20422;-38
2023/09/17 08:02:58;;;;;;;7.55;2.30;;;26.60;59.20;;;;;;10414677;28;20520;-34
2023/09/17 08:08:00;;;;;;;3.10;1.60;;;26.60;59.40;;;;;;10416779;28;20049;-39
2023/09/17 08:13:02;;;;;;;2.70;1.90;;;26.60;59.40;;;;;;10410687;28;20058;-33
2023/09/17 08:18:06;;;;;;;2.58;1.90;;;26.60;59.50;;;;;;10437385;28;20058;-39
2023/09/17 08:23:09;;;;;;;6.15;1.77;;;26.60;59.70;;;;;;10410924;28;20445;-32
2023/09/17 08:28:15;;;;;;;3.22;2.10;;;26.60;59.60;;;;;;10417845;28;20144;-33
2023/09/17 08:33:21;;;;;;;5.57;1.60;;;26.60;59.80;;;;;;10411795;28;20120;-33
2023/09/17 08:38:23;;;;;;;5.28;2.53;;;26.60;60.00;;;;;;10404654;28;20497;-37
2023/09/17 08:43:26;;;;;;;4.90;2.30;;;26.60;60.10;;;;;;10412021;28;20049;-33
2023/09/17 08:48:30;;;;;;;4.60;1.90;;;26.60;60.20;;;;;;10407236;28;20033;-34
2023/09/17 08:53:39;;;;;;;5.68;1.80;;;26.60;60.40;;;;;;10407763;28;20088;-37
2023/09/17 08:58:47;;;;;;;4.22;2.00;;;26.60;60.60;;;;;;10400217;28;20072;-36
2023/09/17 09:03:53;;;;;;;3.75;1.70;;;26.60;60.60;;;;;;10394148;28;20180;-34
2023/09/17 09:08:55;;;;;;;3.72;1.80;;;26.60;61.00;;;;;;10404263;28;20045;-35
2023/09/17 09:13:58;;;;;;;3.17;2.00;;;26.50;61.20;;;;;;10406651;28;20085;-37
2023/09/17 09:19:09;;;;;;;2.40;1.92;;;26.60;61.40;;;;;;10405099;28;20134;-36
2023/09/17 09:24:11;;;;;;;4.60;2.30;;;26.60;61.60;;;;;;10408141;28;20053;-39
2023/09/17 09:29:13;;;;;;;2.30;1.75;;;26.60;61.70;;;;;;10407620;28;20072;-33
2023/09/17 09:34:20;;;;;;;3.95;1.90;;;26.60;61.80;;;;;;10406319;28;20387;-35
2023/09/17 09:39:23;;;;;;;4.93;2.20;;;26.60;61.80;;;;;;10404219;28;20111;-36
2023/09/17 09:44:25;;;;;;;3.35;1.77;;;26.60;61.50;;;;;;10411553;28;20052;-33
2023/09/17 09:49:28;;;;;;;2.85;1.67;;;26.60;61.60;;;;;;10410793;28;20073;-34
2023/09/17 09:54:30;;;;;;;2.78;1.80;;;26.60;61.80;;;;;;10395471;28;20140;-37
2023/09/17 09:59:33;;;;;;;3.53;2.03;;;26.70;62.00;;;;;;10408969;28;20065;-35
2023/09/17 10:04:38;;;;;;;5.78;2.15;;;26.70;62.00;;;;;;10407312;28;20057;-35
2023/09/17 10:09:41;;;;;;;2.78;1.70;;;26.70;61.90;;;;;;10404968;28;20741;-34
2023/09/17 10:14:44;;;;;;;3.15;1.65;;;26.70;61.70;;;;;;10404203;28;20057;-38
2023/09/17 10:19:52;;;;;;;3.47;1.75;;;26.70;61.60;;;;;;10410938;28;20080;-39
2023/09/17 10:24:56;;;;;;;3.88;1.65;;;26.70;61.70;;;;;;10419652;28;20045;-42
2023/09/17 10:30:01;;;;;;;6.50;1.95;;;26.70;61.60;;;;;;10412198;28;20046;-33
2023/09/17 10:35:06;;;;;;;4.75;2.05;;;26.70;62.20;;;;;;10404096;28;20092;-37
2023/09/17 10:40:10;;;;;;;7.25;2.05;;;26.70;61.60;;;;;;10414456;28;20041;-33
2023/09/17 10:45:12;;;;;;;6.40;1.95;;;26.80;61.60;;;;;;10420785;28;20037;-39
2023/09/17 10:50:16;;;;;;;2.45;1.58;;;26.80;61.60;;;;;;10427843;28;20304;-32
2023/09/17 10:55:19;;;;;;;3.20;1.92;;;26.80;61.50;;;;;;10423399;28;20057;-36
2023/09/17 11:00:23;;;;;;;8.30;2.15;;;26.80;61.40;;;;;;10410088;28;20045;-33
2023/09/17 11:05:29;;;;;;;3.20;2.10;;;26.90;61.40;;;;;;10405987;28;20051;-37
2023/09/17 11:10:32;;;;;;;4.10;1.92;;;26.80;61.40;;;;;;10407056;28;20049;-37
2023/09/17 11:15:34;;;;;;;3.83;2.08;;;26.90;61.40;;;;;;10407338;28;20132;-38
2023/09/17 11:20:58;;;;;;;3.22;2.33;;;26.90;61.30;;;;;;10404642;28;20163;-32
2023/09/17 11:26:00;;;;;;;2.58;2.10;;;26.90;61.30;;;;;;10411305;28;20417;-33
2023/09/17 11:31:03;;;;;;;5.38;2.25;;;26.90;61.40;;;;;;10401966;28;20062;-41
2023/09/17 11:36:08;;;;;;;3.08;1.83;;;26.90;61.40;;;;;;10408765;28;20045;-38
2023/09/17 11:41:11;;;;;;;3.50;2.33;;;26.90;61.50;;;;;;10419828;28;20132;-34
2023/09/17 11:46:14;;;;;;;4.78;2.38;;;26.90;61.50;;;;;;10402203;28;20696;-34
2023/09/17 11:51:26;;;;;;;6.15;2.58;;;27.00;61.60;;;;;;10412191;28;20086;-35
2023/09/17 11:56:30;;;;;;;4.60;2.45;;;27.00;61.50;;;;;;10408950;28;20064;-34
2023/09/17 12:01:35;;;;;;;5.35;2.90;;;27.00;62.20;;;;;;10409292;28;20049;-34
2023/09/17 12:06:40;;;;;;;9.90;2.80;;;27.00;61.50;;;;;;10408071;28;20042;-35
2023/09/17 12:11:43;;;;;;;3.33;2.30;;;27.00;61.60;;;;;;10412671;28;20080;-34
2023/09/17 12:16:47;;;;;;;5.75;2.75;;;27.00;61.60;;;;;;10411355;28;20085;-38
2023/09/17 12:21:54;;;;;;;4.90;2.35;;;27.00;61.70;;;;;;10407657;28;20052;-33
2023/09/17 12:27:24;;;;;;;7.18;2.97;;;27.00;61.80;;;;;;10409329;28;20053;-41
2023/09/17 12:32:29;;;;;;;7.38;3.15;;;27.00;61.90;;;;;;10399618;28;20111;-37
2023/09/17 12:37:33;;;;;;;6.10;2.78;;;27.00;61.90;;;;;;10404414;28;20049;-34
2023/09/17 12:42:35;;;;;;;5.97;3.17;;;27.00;61.90;;;;;;10416438;28;20052;-35
2023/09/17 12:47:37;;;;;;;6.82;2.92;;;27.00;61.90;;;;;;10405771;28;20050;-32
2023/09/17 12:52:41;;;;;;;7.93;3.20;;;27.00;61.90;;;;;;10412185;28;20072;-33
2023/09/17 12:57:42;;;;;;;5.80;3.08;;;27.10;62.00;;;;;;10412239;28;20055;-35
2023/09/17 13:02:45;;;;;;;4.60;2.80;;;27.00;62.00;;;;;;10405316;28;20107;-38
2023/09/17 13:07:48;;;;;;;5.63;3.03;;;27.00;62.00;;;;;;10406533;28;20053;-32
2023/09/17 13:12:50;;;;;;;5.93;3.83;;;27.10;62.10;;;;;;10413751;28;20088;-35
2023/09/17 13:17:52;;;;;;;8.63;4.78;;;27.10;62.20;;;;;;10407683;28;20136;-34
2023/09/17 13:22:55;;;;;;;13.18;5.63;;;27.10;62.20;;;;;;10407870;28;20550;-33
2023/09/17 13:27:57;;;;;;;10.82;6.32;;;27.10;62.20;;;;;;10408774;28;20179;-37
2023/09/17 13:32:59;;;;;;;13.98;7.32;;;27.10;62.20;;;;;;10405654;28;20134;-37
2023/09/17 13:38:03;;;;;;;10.48;7.40;;;27.10;62.10;;;;;;10408569;28;20059;-35
2023/09/17 13:43:05;;;;;;;14.15;8.40;;;27.10;62.20;;;;;;10399669;28;20084;-42
2023/09/17 13:48:07;;;;;;;11.10;7.80;;;27.20;62.20;;;;;;10404671;28;20501;-35
2023/09/17 13:53:11;;;;;;;14.77;9.02;;;27.10;62.20;;;;;;10400009;28;20115;-34
2023/09/17 13:58:13;;;;;;;13.48;8.68;;;27.10;62.30;;;;;;10410750;28;20100;-33
2023/09/17 14:03:16;;;;;;;11.82;8.27;;;27.10;62.50;;;;;;10407188;28;20069;-41
2023/09/17 14:08:19;;;;;;;12.57;7.40;;;27.10;62.00;;;;;;10403744;28;20468;-36
2023/09/17 14:13:21;;;;;;;12.95;8.48;;;27.10;62.50;;;;;;10409517;28;20096;-36
2023/09/17 14:18:23;;;;;;;14.93;8.20;;;27.20;62.60;;;;;;10405153;28;20053;-46
2023/09/17 14:23:26;;;;;;;13.05;7.40;;;27.10;62.60;;;;;;10403682;28;20057;-34
2023/09/17 14:28:28;;;;;;;11.48;7.63;;;27.20;62.60;;;;;;10393557;28;20409;-34
2023/09/17 14:33:30;;;;;;;13.40;7.25;;;27.20;62.70;;;;;;10403206;28;20055;-36
2023/09/17 14:38:33;;;;;;;10.18;7.63;;;27.20;62.80;;;;;;10407170;28;20055;-40
2023/09/17 14:43:35;;;;;;;10.98;7.50;;;27.20;62.80;;;;;;10403380;28;20097;-40
2023/09/17 14:48:37;;;;;;;11.43;7.47;;;27.20;62.90;;;;;;10397546;28;20142;-39
2023/09/17 14:53:40;;;;;;;11.85;6.65;;;27.20;62.80;;;;;;10400730;28;20045;-32
2023/09/17 14:58:42;;;;;;;10.60;6.72;;;27.20;62.90;;;;;;10411704;28;20127;-36
2023/09/17 15:03:44;;;;;;;10.52;7.38;;;27.20;63.00;;;;;;10407313;28;20072;-32
2023/09/17 15:08:47;;;;;;;11.30;7.93;;;27.20;63.10;;;;;;10402768;28;20045;-34
2023/09/17 15:13:49;;;;;;;11.90;8.18;;;27.20;63.10;;;;;;10407127;28;20089;-37
2023/09/17 15:18:50;;;;;;;13.35;8.80;;;27.20;63.20;;;;;;10402218;28;20083;-34
2023/09/17 15:23:54;;;;;;;11.27;8.43;;;27.30;63.30;;;;;;10403725;28;20167;-34
2023/09/17 15:28:56;;;;;;;13.88;9.02;;;27.30;63.10;;;;;;10402728;28;20502;-35
2023/09/17 15:33:57;;;;;;;12.50;8.85;;;27.30;63.10;;;;;;10398797;28;20164;-34
2023/09/17 15:39:02;;;;;;;11.63;8.85;;;27.30;63.10;;;;;;10403430;28;20475;-36
2023/09/17 15:44:06;;;;;;;10.82;8.65;;;27.30;63.10;;;;;;10408677;28;20057;-37
2023/09/17 15:49:08;;;;;;;13.80;9.60;;;27.30;63.10;;;;;;10394674;28;20045;-37
2023/09/17 15:54:11;;;;;;;14.10;9.68;;;27.30;63.10;;;;;;10410538;28;20080;-36
2023/09/17 15:59:13;;;;;;;14.98;9.52;;;27.20;63.20;;;;;;10402249;28;20061;-31
2023/09/17 16:04:15;;;;;;;12.43;9.52;;;27.30;63.30;;;;;;10401737;28;20052;-39
2023/09/17 16:09:18;;;;;;;11.90;9.25;;;27.30;63.40;;;;;;10395092;28;20476;-31
2023/09/17 16:14:20;;;;;;;14.43;9.68;;;27.30;63.40;;;;;;10403766;28;20702;-34
2023/09/17 16:19:27;;;;;;;13.50;9.43;;;27.20;63.50;;;;;;10403759;28;20096;-38
2023/09/17 16:24:31;;;;;;;15.40;9.18;;;27.30;63.70;;;;;;10413493;28;20061;-38
2023/09/17 16:29:35;;;;;;;14.48;9.32;;;27.30;63.80;;;;;;10411555;28;20045;-37
2023/09/17 16:34:37;;;;;;;13.90;9.73;;;27.30;63.90;;;;;;10407872;28;20545;-37
2023/09/17 16:39:40;;;;;;;12.45;8.55;;;27.30;64.20;;;;;;10405711;28;20600;-38
2023/09/17 16:44:44;;;;;;;12.32;8.68;;;27.30;64.20;;;;;;10403758;28;20491;-30
2023/09/17 16:49:46;;;;;;;12.27;8.05;;;27.30;64.30;;;;;;10399556;28;20041;-31
2023/09/17 16:54:50;;;;;;;20.77;6.97;;;27.30;64.50;;;;;;10408746;28;20143;-32
2023/09/17 16:59:51;;;;;;;13.10;7.40;;;27.30;64.70;;;;;;10408225;28;20865;-32
2023/09/17 17:04:55;;;;;;;10.85;7.30;;;27.30;65.00;;;;;;10397635;28;20121;-32
2023/09/17 17:10:00;;;;;;;11.27;7.25;;;27.20;65.10;;;;;;10409305;28;20051;-36
2023/09/17 17:15:03;;;;;;;10.10;6.57;;;27.30;65.40;;;;;;10396647;28;20156;-39
2023/09/17 17:20:06;;;;;;;12.10;7.32;;;27.20;65.60;;;;;;10401963;28;20041;-40
2023/09/17 17:25:10;;;;;;;10.85;6.72;;;27.30;65.80;;;;;;10402962;28;20119;-32
2023/09/17 17:30:12;;;;;;;14.95;7.85;;;27.20;66.00;;;;;;10424147;28;20136;-33
2023/09/17 17:35:16;;;;;;;11.93;7.10;;;27.20;66.10;;;;;;10405717;28;20088;-35
2023/09/17 17:40:22;;;;;;;14.95;7.78;;;27.20;66.50;;;;;;10403245;28;20045;-35
2023/09/17 17:45:24;;;;;;;14.07;7.30;;;27.20;66.60;;;;;;10401227;28;20041;-33
2023/09/17 17:50:26;;;;;;;13.60;7.35;;;27.20;67.30;;;;;;10405264;28;20038;-32
2023/09/17 17:55:29;;;;;;;10.32;6.55;;;27.20;67.00;;;;;;10412708;28;20084;-38
2023/09/17 18:00:32;;;;;;;11.18;7.18;;;27.20;67.60;;;;;;10396544;28;20574;-34
2023/09/17 18:05:35;;;;;;;11.82;7.03;;;27.20;67.30;;;;;;10402271;28;20069;-36
2023/09/17 18:10:39;;;;;;;12.35;7.28;;;27.10;67.30;;;;;;10406950;28;20052;-32
2023/09/17 18:15:41;;;;;;;11.45;6.57;;;27.10;67.40;;;;;;10408071;28;20149;-39
2023/09/17 18:20:43;;;;;;;15.10;6.65;;;27.10;67.50;;;;;;10405540;28;20161;-32
2023/09/17 18:25:46;;;;;;;11.45;7.32;;;27.10;67.60;;;;;;10394100;28;20056;-32
2023/09/17 18:30:48;;;;;;;10.43;6.75;;;27.10;67.60;;;;;;10414146;28;20109;-36
2023/09/17 18:35:53;;;;;;;9.88;6.70;;;27.10;67.70;;;;;;10411294;28;20071;-33
2023/09/17 18:40:58;;;;;;;13.70;7.55;;;27.10;68.10;;;;;;10412760;28;20050;-32
2023/09/17 18:46:04;;;;;;;10.63;6.75;;;27.10;68.20;;;;;;10407695;28;20519;-40
2023/09/17 18:51:07;;;;;;;16.35;7.78;;;27.10;68.90;;;;;;10409886;28;20041;-34
2023/09/17 18:56:10;;;;;;;12.95;7.40;;;27.10;68.50;;;;;;10410788;28;20053;-38
2023/09/17 19:01:12;;;;;;;13.55;7.72;;;27.00;68.50;;;;;;10410193;28;20132;-39
2023/09/17 19:06:15;;;;;;;15.32;6.78;;;27.00;68.60;;;;;;10404097;28;20476;-34
2023/09/17 19:11:18;;;;;;;21.90;7.43;;;27.00;68.60;;;;;;10408568;28;20072;-32
2023/09/17 19:16:20;;;;;;;17.77;7.97;;;27.00;68.80;;;;;;10403673;28;20053;-33
2023/09/17 19:21:24;;;;;;;12.38;7.45;;;27.00;68.90;;;;;;10405881;28;20091;-33
2023/09/17 19:26:27;;;;;;;22.17;7.65;;;27.00;68.90;;;;;;10398898;28;20375;-35
2023/09/17 19:31:29;;;;;;;18.50;7.97;;;27.00;69.10;;;;;;10402331;28;20054;-40
2023/09/17 19:36:33;;;;;;;13.88;7.40;;;27.00;69.10;;;;;;10403426;28;20132;-35
2023/09/17 19:41:36;;;;;;;16.58;7.18;;;27.00;69.10;;;;;;10404817;28;20076;-36
2023/09/17 19:46:38;;;;;;;13.57;7.55;;;27.00;69.00;;;;;;10402101;28;20045;-35
2023/09/17 19:51:40;;;;;;;12.23;7.72;;;27.00;69.10;;;;;;10408435;28;20093;-34
2023/09/17 19:56:45;;;;;;;12.23;7.60;;;27.00;68.90;;;;;;10411321;28;20072;-35
2023/09/17 20:01:47;;;;;;;15.70;8.30;;;26.90;68.90;;;;;;10409826;28;20057;-30
2023/09/17 20:06:49;;;;;;;13.68;8.18;;;26.90;68.90;;;;;;10409143;28;20049;-36
2023/09/17 20:11:54;;;;;;;13.13;8.45;;;26.90;69.00;;;;;;10417571;28;20118;-34
2023/09/17 20:16:56;;;;;;;18.58;8.40;;;26.90;69.00;;;;;;10411637;28;20049;-33
2023/09/17 20:21:59;;;;;;;14.20;9.57;;;26.90;69.10;;;;;;10420473;28;20380;-37
2023/09/17 20:27:03;;;;;;;14.43;8.40;;;26.90;69.10;;;;;;10412203;28;20053;-31
2023/09/17 20:32:06;;;;;;;13.38;8.15;;;26.90;69.30;;;;;;10410952;28;20048;-35
2023/09/17 20:37:09;;;;;;;16.27;8.65;;;26.80;69.30;;;;;;10410329;28;20136;-35
2023/09/17 20:42:12;;;;;;;11.50;7.80;;;26.80;69.10;;;;;;10419301;28;20077;-36
2023/09/17 20:47:14;;;;;;;15.30;8.18;;;26.90;69.20;;;;;;10417027;28;20045;-34
2023/09/17 20:52:16;;;;;;;12.27;8.10;;;26.80;69.20;;;;;;10421141;28;20041;-34
2023/09/17 20:57:20;;;;;;;10.90;8.05;;;26.80;69.10;;;;;;10421050;28;20148;-35
2023/09/17 21:02:22;;;;;;;14.85;8.13;;;26.80;69.10;;;;;;10411528;28;20044;-38
2023/09/17 21:07:24;;;;;;;11.63;7.13;;;26.80;69.20;;;;;;10408860;28;20037;-36
2023/09/17 21:12:28;;;;;;;12.15;7.75;;;26.80;69.30;;;;;;10410062;28;20049;-34
2023/09/17 21:17:31;;;;;;;11.35;7.80;;;26.70;69.30;;;;;;10416314;28;20474;-36
2023/09/17 21:22:34;;;;;;;11.95;7.68;;;26.70;69.30;;;;;;10406671;28;20441;-38
2023/09/17 21:27:39;;;;;;;12.68;7.47;;;26.70;69.30;;;;;;10404912;28;20072;-37
2023/09/17 21:32:42;;;;;;;15.13;7.88;;;26.70;69.40;;;;;;10405492;28;20677;-36
2023/09/17 21:37:44;;;;;;;11.40;7.47;;;26.70;69.40;;;;;;10406590;28;20529;-35
2023/09/17 21:42:47;;;;;;;11.13;7.50;;;26.70;69.50;;;;;;10396775;28;21417;-38
2023/09/17 21:47:49;;;;;;;11.18;7.10;;;26.70;69.70;;;;;;10393447;28;20053;-37
2023/09/17 21:52:52;;;;;;;11.98;7.55;;;26.70;69.70;;;;;;10407547;28;20088;-36
2023/09/17 21:57:55;;;;;;;9.48;7.07;;;26.70;69.80;;;;;;10389638;28;20088;-36
2023/09/17 22:02:57;;;;;;;11.02;6.78;;;26.60;69.90;;;;;;10402358;28;20084;-35
2023/09/17 22:07:59;;;;;;;10.88;7.03;;;26.60;69.90;;;;;;10408825;28;20163;-39
2023/09/17 22:13:03;;;;;;;10.40;7.03;;;26.60;69.90;;;;;;10411225;28;20049;-36
2023/09/17 22:18:05;;;;;;;10.77;6.45;;;26.60;70.00;;;;;;10411376;28;20057;-35
2023/09/17 22:23:07;;;;;;;13.32;7.40;;;26.60;70.00;;;;;;10400964;28;20493;-35
2023/09/17 22:28:10;;;;;;;11.40;7.38;;;26.60;70.10;;;;;;10404577;28;20068;-41
2023/09/17 22:33:12;;;;;;;11.18;7.07;;;26.50;70.20;;;;;;10403768;28;20056;-42
2023/09/17 22:38:14;;;;;;;8.02;6.40;;;26.60;70.30;;;;;;10408899;28;20081;-35
2023/09/17 22:43:17;;;;;;;8.88;6.35;;;26.60;70.40;;;;;;10406994;28;20057;-33
2023/09/17 22:48:19;;;;;;;8.35;6.05;;;26.50;70.50;;;;;;10403620;28;20488;-39
2023/09/17 22:53:21;;;;;;;7.60;6.10;;;26.50;70.40;;;;;;10410805;28;20050;-35
2023/09/17 22:58:25;;;;;;;7.47;5.30;;;26.50;70.60;;;;;;10376171;28;20057;-31
2023/09/17 23:03:27;;;;;;;7.40;5.75;;;26.50;70.70;;;;;;10413325;28;20079;-35
2023/09/17 23:08:29;;;;;;;8.80;6.10;;;26.50;70.80;;;;;;10398763;28;20060;-34
2023/09/17 23:13:33;;;;;;;8.55;5.65;;;26.50;70.80;;;;;;10417705;28;20053;-34
2023/09/17 23:18:35;;;;;;;7.95;5.47;;;26.50;71.00;;;;;;10406658;28;20493;-38
2023/09/17 23:23:37;;;;;;;7.07;5.50;;;26.50;71.00;;;;;;10421815;28;20128;-31
2023/09/17 23:28:40;;;;;;;8.98;5.22;;;26.50;71.10;;;;;;10411690;28;20128;-32
2023/09/17 23:33:42;;;;;;;6.88;5.30;;;26.40;71.20;;;;;;10414846;28;20049;-34
2023/09/17 23:38:44;;;;;;;8.88;5.20;;;26.40;71.20;;;;;;10412808;28;20149;-32
2023/09/17 23:43:47;;;;;;;7.43;5.15;;;26.40;71.30;;;;;;10410620;28;20133;-34
2023/09/17 23:48:49;;;;;;;7.05;5.13;;;26.40;71.40;;;;;;10417635;28;20048;-35
2023/09/17 23:53:52;;;;;;;8.40;5.20;;;26.40;71.40;;;;;;10417435;28;20417;-37
2023/09/17 23:58:55;;;;;;;6.03;4.45;;;26.40;71.60;;;;;;10401386;28;20137;-35
